sensor_id;sensor_type;location;lat;lon;timestamp;temperature;humidity
71084;DHT22;58741;52.672;13.548;2022-09-03T00:01:24;13.40;64.30
71084;DHT22;58741;52.672;13.548;2022-09-03T00:03:58;13.40;64.80
71084;DHT22;58741;52.672;13.548;2022-09-03T00:06:34;13.40;65.00
71084;DHT22;58741;52.672;13.548;2022-09-03T00:12:29;13.30;65.50
71084;DHT22;58741;52.672;13.548;2022-09-03T00:15:06;13.30;64.90
71084;DHT22;58741;52.672;13.548;2022-09-03T00:17:36;13.30;64.90
71084;DHT22;58741;52.672;13.548;2022-09-03T00:20:10;13.30;65.40
71084;DHT22;58741;52.672;13.548;2022-09-03T00:22:42;13.20;65.50
71084;DHT22;58741;52.672;13.548;2022-09-03T00:25:12;13.20;65.40
71084;DHT22;58741;52.672;13.548;2022-09-03T00:33:46;13.20;65.50
71084;DHT22;58741;52.672;13.548;2022-09-03T00:38:44;13.20;65.70
71084;DHT22;58741;52.672;13.548;2022-09-03T00:44:11;13.20;65.90
71084;DHT22;58741;52.672;13.548;2022-09-03T00:46:48;13.10;66.10
71084;DHT22;58741;52.672;13.548;2022-09-03T00:52:38;13.10;66.30
71084;DHT22;58741;52.672;13.548;2022-09-03T00:55:21;13.10;66.10
71084;DHT22;58741;52.672;13.548;2022-09-03T01:00:26;13.00;66.50
71084;DHT22;58741;52.672;13.548;2022-09-03T01:06:16;13.00;66.00
71084;DHT22;58741;52.672;13.548;2022-09-03T01:11:57;13.00;66.50
71084;DHT22;58741;52.672;13.548;2022-09-03T01:14:35;13.00;66.60
71084;DHT22;58741;52.672;13.548;2022-09-03T01:17:11;12.90;66.40
71084;DHT22;58741;52.672;13.548;2022-09-03T01:25:43;12.90;66.60
71084;DHT22;58741;52.672;13.548;2022-09-03T01:28:15;12.90;66.60
71084;DHT22;58741;52.672;13.548;2022-09-03T01:33:27;12.90;66.70
71084;DHT22;58741;52.672;13.548;2022-09-03T01:36:10;12.90;66.60
71084;DHT22;58741;52.672;13.548;2022-09-03T01:38:50;12.90;66.80
71084;DHT22;58741;52.672;13.548;2022-09-03T01:41:34;12.90;66.80
71084;DHT22;58741;52.672;13.548;2022-09-03T01:50:09;12.80;66.90
71084;DHT22;58741;52.672;13.548;2022-09-03T01:55:24;12.80;66.60
71084;DHT22;58741;52.672;13.548;2022-09-03T02:00:08;12.80;66.80
71084;DHT22;58741;52.672;13.548;2022-09-03T02:02:35;12.70;66.70
71084;DHT22;58741;52.672;13.548;2022-09-03T02:05:11;12.70;67.30
71084;DHT22;58741;52.672;13.548;2022-09-03T02:07:50;12.70;67.60
71084;DHT22;58741;52.672;13.548;2022-09-03T02:10:22;12.60;67.50
71084;DHT22;58741;52.672;13.548;2022-09-03T02:12:52;12.60;68.20
71084;DHT22;58741;52.672;13.548;2022-09-03T02:15:20;12.50;68.40
71084;DHT22;58741;52.672;13.548;2022-09-03T02:17:48;12.50;68.10
71084;DHT22;58741;52.672;13.548;2022-09-03T02:20:18;12.40;68.30
71084;DHT22;58741;52.672;13.548;2022-09-03T02:22:49;12.40;68.50
71084;DHT22;58741;52.672;13.548;2022-09-03T02:25:18;12.40;68.70
71084;DHT22;58741;52.672;13.548;2022-09-03T02:27:44;12.30;68.60
71084;DHT22;58741;52.672;13.548;2022-09-03T02:30:10;12.30;68.70
71084;DHT22;58741;52.672;13.548;2022-09-03T02:32:36;12.30;68.80
71084;DHT22;58741;52.672;13.548;2022-09-03T02:35:02;12.20;69.10
71084;DHT22;58741;52.672;13.548;2022-09-03T02:37:28;12.20;69.00
71084;DHT22;58741;52.672;13.548;2022-09-03T02:39:53;12.20;68.70
71084;DHT22;58741;52.672;13.548;2022-09-03T02:42:20;12.10;69.20
71084;DHT22;58741;52.672;13.548;2022-09-03T02:45:26;12.10;69.30
71084;DHT22;58741;52.672;13.548;2022-09-03T02:47:55;12.10;69.40
71084;DHT22;58741;52.672;13.548;2022-09-03T02:50:21;12.00;69.50
71084;DHT22;58741;52.672;13.548;2022-09-03T02:52:47;12.00;69.40
71084;DHT22;58741;52.672;13.548;2022-09-03T02:55:12;11.90;69.50
71084;DHT22;58741;52.672;13.548;2022-09-03T02:57:38;11.90;70.10
71084;DHT22;58741;52.672;13.548;2022-09-03T03:00:04;11.90;69.90
71084;DHT22;58741;52.672;13.548;2022-09-03T03:02:30;11.80;70.10
71084;DHT22;58741;52.672;13.548;2022-09-03T03:04:55;11.80;70.40
71084;DHT22;58741;52.672;13.548;2022-09-03T03:07:21;11.70;70.40
71084;DHT22;58741;52.672;13.548;2022-09-03T03:09:46;11.70;70.60
71084;DHT22;58741;52.672;13.548;2022-09-03T03:12:12;11.70;70.50
71084;DHT22;58741;52.672;13.548;2022-09-03T03:14:37;11.70;70.60
71084;DHT22;58741;52.672;13.548;2022-09-03T03:17:03;11.60;70.40
71084;DHT22;58741;52.672;13.548;2022-09-03T03:19:28;11.60;70.60
71084;DHT22;58741;52.672;13.548;2022-09-03T03:21:54;11.60;70.30
71084;DHT22;58741;52.672;13.548;2022-09-03T03:24:19;11.60;70.70
71084;DHT22;58741;52.672;13.548;2022-09-03T03:26:45;11.50;71.00
71084;DHT22;58741;52.672;13.548;2022-09-03T03:29:14;11.50;70.90
71084;DHT22;58741;52.672;13.548;2022-09-03T03:31:41;11.50;71.20
71084;DHT22;58741;52.672;13.548;2022-09-03T03:34:07;11.50;71.10
71084;DHT22;58741;52.672;13.548;2022-09-03T03:36:33;11.50;71.20
71084;DHT22;58741;52.672;13.548;2022-09-03T03:38:59;11.40;71.60
71084;DHT22;58741;52.672;13.548;2022-09-03T03:41:28;11.40;71.60
71084;DHT22;58741;52.672;13.548;2022-09-03T03:43:57;11.40;72.10
71084;DHT22;58741;52.672;13.548;2022-09-03T03:46:24;11.40;71.80
71084;DHT22;58741;52.672;13.548;2022-09-03T03:48:51;11.40;72.50
71084;DHT22;58741;52.672;13.548;2022-09-03T03:51:17;11.40;72.00
71084;DHT22;58741;52.672;13.548;2022-09-03T03:53:43;11.40;71.80
71084;DHT22;58741;52.672;13.548;2022-09-03T03:56:11;11.30;72.20
71084;DHT22;58741;52.672;13.548;2022-09-03T03:58:38;11.40;72.00
71084;DHT22;58741;52.672;13.548;2022-09-03T04:01:09;11.40;72.10
71084;DHT22;58741;52.672;13.548;2022-09-03T04:03:36;11.40;72.70
71084;DHT22;58741;52.672;13.548;2022-09-03T04:06:02;11.40;73.00
71084;DHT22;58741;52.672;13.548;2022-09-03T04:08:29;11.40;73.00
71084;DHT22;58741;52.672;13.548;2022-09-03T04:10:59;11.40;73.50
71084;DHT22;58741;52.672;13.548;2022-09-03T04:13:29;11.40;73.40
71084;DHT22;58741;52.672;13.548;2022-09-03T04:16:04;11.50;73.70
71084;DHT22;58741;52.672;13.548;2022-09-03T04:18:31;11.50;73.30
71084;DHT22;58741;52.672;13.548;2022-09-03T04:21:00;11.50;73.20
71084;DHT22;58741;52.672;13.548;2022-09-03T04:23:29;11.50;73.70
71084;DHT22;58741;52.672;13.548;2022-09-03T04:25:54;11.50;73.60
71084;DHT22;58741;52.672;13.548;2022-09-03T04:28:20;11.60;73.90
71084;DHT22;58741;52.672;13.548;2022-09-03T04:30:46;11.60;74.60
71084;DHT22;58741;52.672;13.548;2022-09-03T04:33:12;11.60;74.40
71084;DHT22;58741;52.672;13.548;2022-09-03T04:35:37;11.70;74.30
71084;DHT22;58741;52.672;13.548;2022-09-03T04:38:05;11.70;74.70
71084;DHT22;58741;52.672;13.548;2022-09-03T04:40:30;11.70;74.90
71084;DHT22;58741;52.672;13.548;2022-09-03T04:42:56;11.70;74.40
71084;DHT22;58741;52.672;13.548;2022-09-03T04:45:23;11.70;75.00
71084;DHT22;58741;52.672;13.548;2022-09-03T04:48:01;11.70;74.50
71084;DHT22;58741;52.672;13.548;2022-09-03T04:50:29;11.70;75.00
71084;DHT22;58741;52.672;13.548;2022-09-03T04:52:59;11.80;74.40
71084;DHT22;58741;52.672;13.548;2022-09-03T04:55:25;11.80;74.80
71084;DHT22;58741;52.672;13.548;2022-09-03T04:57:50;11.80;74.80
71084;DHT22;58741;52.672;13.548;2022-09-03T05:00:16;11.90;75.20
71084;DHT22;58741;52.672;13.548;2022-09-03T05:02:46;11.90;75.40
71084;DHT22;58741;52.672;13.548;2022-09-03T05:05:13;11.90;75.50
71084;DHT22;58741;52.672;13.548;2022-09-03T05:07:38;11.90;75.50
71084;DHT22;58741;52.672;13.548;2022-09-03T05:10:07;12.00;76.70
71084;DHT22;58741;52.672;13.548;2022-09-03T05:12:33;12.00;75.50
71084;DHT22;58741;52.672;13.548;2022-09-03T05:14:59;12.10;76.10
71084;DHT22;58741;52.672;13.548;2022-09-03T05:17:25;12.10;75.20
71084;DHT22;58741;52.672;13.548;2022-09-03T05:19:51;12.20;75.80
71084;DHT22;58741;52.672;13.548;2022-09-03T05:22:18;12.20;76.00
71084;DHT22;58741;52.672;13.548;2022-09-03T05:24:46;12.30;75.80
71084;DHT22;58741;52.672;13.548;2022-09-03T05:27:13;12.30;75.40
71084;DHT22;58741;52.672;13.548;2022-09-03T05:29:41;12.40;76.20
71084;DHT22;58741;52.672;13.548;2022-09-03T05:32:07;12.40;75.40
71084;DHT22;58741;52.672;13.548;2022-09-03T05:34:32;12.40;75.90
71084;DHT22;58741;52.672;13.548;2022-09-03T05:36:58;12.50;75.80
71084;DHT22;58741;52.672;13.548;2022-09-03T05:39:23;12.60;75.70
71084;DHT22;58741;52.672;13.548;2022-09-03T05:41:49;12.60;76.00
71084;DHT22;58741;52.672;13.548;2022-09-03T05:44:16;12.70;75.10
71084;DHT22;58741;52.672;13.548;2022-09-03T05:46:42;12.80;75.80
71084;DHT22;58741;52.672;13.548;2022-09-03T05:49:07;12.80;75.20
71084;DHT22;58741;52.672;13.548;2022-09-03T05:51:34;12.90;75.00
71084;DHT22;58741;52.672;13.548;2022-09-03T05:54:00;12.90;74.90
71084;DHT22;58741;52.672;13.548;2022-09-03T05:56:29;13.00;74.70
71084;DHT22;58741;52.672;13.548;2022-09-03T05:58:57;13.00;74.60
71084;DHT22;58741;52.672;13.548;2022-09-03T06:01:30;13.10;74.40
71084;DHT22;58741;52.672;13.548;2022-09-03T06:04:10;13.20;74.30
71084;DHT22;58741;52.672;13.548;2022-09-03T06:06:38;13.20;73.90
71084;DHT22;58741;52.672;13.548;2022-09-03T06:09:09;13.30;74.40
71084;DHT22;58741;52.672;13.548;2022-09-03T06:11:36;13.30;74.00
71084;DHT22;58741;52.672;13.548;2022-09-03T06:14:04;13.40;73.70
71084;DHT22;58741;52.672;13.548;2022-09-03T06:16:31;13.40;73.10
71084;DHT22;58741;52.672;13.548;2022-09-03T06:18:58;13.50;73.20
71084;DHT22;58741;52.672;13.548;2022-09-03T06:21:23;13.60;73.20
71084;DHT22;58741;52.672;13.548;2022-09-03T06:23:50;13.60;73.20
71084;DHT22;58741;52.672;13.548;2022-09-03T06:26:17;13.70;73.10
71084;DHT22;58741;52.672;13.548;2022-09-03T06:28:43;13.80;73.30
71084;DHT22;58741;52.672;13.548;2022-09-03T06:31:11;13.90;73.20
71084;DHT22;58741;52.672;13.548;2022-09-03T06:33:38;13.90;72.90
71084;DHT22;58741;52.672;13.548;2022-09-03T06:36:05;14.10;72.40
71084;DHT22;58741;52.672;13.548;2022-09-03T06:38:33;14.20;71.90
71084;DHT22;58741;52.672;13.548;2022-09-03T06:41:06;14.30;71.90
71084;DHT22;58741;52.672;13.548;2022-09-03T06:43:34;14.40;71.40
71084;DHT22;58741;52.672;13.548;2022-09-03T06:46:02;14.50;70.80
71084;DHT22;58741;52.672;13.548;2022-09-03T06:48:30;14.60;70.80
71084;DHT22;58741;52.672;13.548;2022-09-03T06:50:57;14.60;70.20
71084;DHT22;58741;52.672;13.548;2022-09-03T06:53:27;14.70;69.80
71084;DHT22;58741;52.672;13.548;2022-09-03T06:55:58;14.70;69.40
71084;DHT22;58741;52.672;13.548;2022-09-03T06:58:27;14.80;69.80
71084;DHT22;58741;52.672;13.548;2022-09-03T07:00:53;14.80;69.50
71084;DHT22;58741;52.672;13.548;2022-09-03T07:03:24;14.90;68.90
71084;DHT22;58741;52.672;13.548;2022-09-03T07:05:50;14.90;69.10
71084;DHT22;58741;52.672;13.548;2022-09-03T07:08:15;15.00;69.00
71084;DHT22;58741;52.672;13.548;2022-09-03T07:10:44;15.00;68.60
71084;DHT22;58741;52.672;13.548;2022-09-03T07:13:12;15.10;68.60
71084;DHT22;58741;52.672;13.548;2022-09-03T07:15:37;15.10;69.80
71084;DHT22;58741;52.672;13.548;2022-09-03T07:18:04;15.20;68.80
71084;DHT22;58741;52.672;13.548;2022-09-03T07:20:30;15.20;68.00
71084;DHT22;58741;52.672;13.548;2022-09-03T07:22:55;15.30;67.90
71084;DHT22;58741;52.672;13.548;2022-09-03T07:25:23;15.30;67.80
71084;DHT22;58741;52.672;13.548;2022-09-03T07:27:49;15.30;68.20
71084;DHT22;58741;52.672;13.548;2022-09-03T07:30:16;15.40;67.50
71084;DHT22;58741;52.672;13.548;2022-09-03T07:32:42;15.40;68.00
71084;DHT22;58741;52.672;13.548;2022-09-03T07:35:08;15.40;67.80
71084;DHT22;58741;52.672;13.548;2022-09-03T07:37:33;15.50;67.70
71084;DHT22;58741;52.672;13.548;2022-09-03T07:39:59;15.60;67.80
71084;DHT22;58741;52.672;13.548;2022-09-03T07:42:26;15.60;67.40
71084;DHT22;58741;52.672;13.548;2022-09-03T07:44:55;15.70;67.50
71084;DHT22;58741;52.672;13.548;2022-09-03T07:47:20;15.80;67.30
71084;DHT22;58741;52.672;13.548;2022-09-03T07:49:46;15.80;66.90
71084;DHT22;58741;52.672;13.548;2022-09-03T07:52:12;15.80;66.90
71084;DHT22;58741;52.672;13.548;2022-09-03T07:54:37;15.90;67.10
71084;DHT22;58741;52.672;13.548;2022-09-03T07:57:03;16.00;66.80
71084;DHT22;58741;52.672;13.548;2022-09-03T07:59:29;16.00;66.60
71084;DHT22;58741;52.672;13.548;2022-09-03T08:01:55;16.10;66.40
71084;DHT22;58741;52.672;13.548;2022-09-03T08:04:21;16.20;66.10
71084;DHT22;58741;52.672;13.548;2022-09-03T08:06:46;16.30;66.40
71084;DHT22;58741;52.672;13.548;2022-09-03T08:09:13;16.40;66.50
71084;DHT22;58741;52.672;13.548;2022-09-03T08:11:41;16.50;66.50
71084;DHT22;58741;52.672;13.548;2022-09-03T08:14:11;16.60;66.60
71084;DHT22;58741;52.672;13.548;2022-09-03T08:16:39;16.70;66.00
71084;DHT22;58741;52.672;13.548;2022-09-03T08:19:06;16.80;65.10
71084;DHT22;58741;52.672;13.548;2022-09-03T08:21:31;16.90;64.90
71084;DHT22;58741;52.672;13.548;2022-09-03T08:23:57;16.90;64.30
71084;DHT22;58741;52.672;13.548;2022-09-03T08:26:30;17.00;64.90
71084;DHT22;58741;52.672;13.548;2022-09-03T08:28:56;17.10;64.60
71084;DHT22;58741;52.672;13.548;2022-09-03T08:31:22;17.20;64.40
71084;DHT22;58741;52.672;13.548;2022-09-03T08:33:51;17.30;64.60
71084;DHT22;58741;52.672;13.548;2022-09-03T08:36:22;17.40;63.80
71084;DHT22;58741;52.672;13.548;2022-09-03T08:38:48;17.50;63.60
71084;DHT22;58741;52.672;13.548;2022-09-03T08:44:03;17.60;62.90
71084;DHT22;58741;52.672;13.548;2022-09-03T08:49:25;17.90;62.20
71084;DHT22;58741;52.672;13.548;2022-09-03T08:51:53;18.00;62.40
71084;DHT22;58741;52.672;13.548;2022-09-03T08:54:24;18.20;62.80
71084;DHT22;58741;52.672;13.548;2022-09-03T08:56:51;18.30;60.60
71084;DHT22;58741;52.672;13.548;2022-09-03T08:59:18;18.40;61.10
71084;DHT22;58741;52.672;13.548;2022-09-03T09:01:56;18.60;60.30
71084;DHT22;58741;52.672;13.548;2022-09-03T09:07:13;18.80;61.20
71084;DHT22;58741;52.672;13.548;2022-09-03T09:10:04;19.10;59.60
71084;DHT22;58741;52.672;13.548;2022-09-03T09:12:52;19.20;59.00
71084;DHT22;58741;52.672;13.548;2022-09-03T09:15:29;19.40;59.20
71084;DHT22;58741;52.672;13.548;2022-09-03T09:18:27;19.50;58.90
71084;DHT22;58741;52.672;13.548;2022-09-03T09:21:22;19.70;58.70
71084;DHT22;58741;52.672;13.548;2022-09-03T09:23:51;19.90;58.70
71084;DHT22;58741;52.672;13.548;2022-09-03T09:26:20;20.00;56.10
71084;DHT22;58741;52.672;13.548;2022-09-03T09:28:54;20.10;56.70
71084;DHT22;58741;52.672;13.548;2022-09-03T09:31:21;20.20;56.00
71084;DHT22;58741;52.672;13.548;2022-09-03T09:33:47;20.40;56.20
71084;DHT22;58741;52.672;13.548;2022-09-03T09:36:15;20.50;55.80
71084;DHT22;58741;52.672;13.548;2022-09-03T09:38:42;20.60;55.50
71084;DHT22;58741;52.672;13.548;2022-09-03T09:41:15;20.80;53.60
71084;DHT22;58741;52.672;13.548;2022-09-03T09:43:41;20.90;53.50
71084;DHT22;58741;52.672;13.548;2022-09-03T09:46:34;21.10;53.20
71084;DHT22;58741;52.672;13.548;2022-09-03T09:49:00;21.20;53.10
71084;DHT22;58741;52.672;13.548;2022-09-03T09:51:28;21.40;50.90
71084;DHT22;58741;52.672;13.548;2022-09-03T09:54:15;21.50;50.70
71084;DHT22;58741;52.672;13.548;2022-09-03T09:56:43;21.60;49.00
71084;DHT22;58741;52.672;13.548;2022-09-03T09:59:10;21.60;49.60
71084;DHT22;58741;52.672;13.548;2022-09-03T10:01:38;21.70;50.50
71084;DHT22;58741;52.672;13.548;2022-09-03T10:06:35;21.90;48.40
71084;DHT22;58741;52.672;13.548;2022-09-03T10:09:23;22.00;47.50
71084;DHT22;58741;52.672;13.548;2022-09-03T10:12:13;22.00;47.50
71084;DHT22;58741;52.672;13.548;2022-09-03T10:14:54;22.10;47.60
71084;DHT22;58741;52.672;13.548;2022-09-03T10:17:44;22.10;47.20
71084;DHT22;58741;52.672;13.548;2022-09-03T10:23:20;22.40;47.50
71084;DHT22;58741;52.672;13.548;2022-09-03T10:26:16;22.40;45.60
71084;DHT22;58741;52.672;13.548;2022-09-03T10:28:47;22.50;46.30
71084;DHT22;58741;52.672;13.548;2022-09-03T10:31:30;22.50;46.30
71084;DHT22;58741;52.672;13.548;2022-09-03T10:34:15;22.60;43.90
71084;DHT22;58741;52.672;13.548;2022-09-03T10:42:31;22.80;45.70
71084;DHT22;58741;52.672;13.548;2022-09-03T10:45:28;22.90;45.60
71084;DHT22;58741;52.672;13.548;2022-09-03T10:48:17;23.00;45.70
71084;DHT22;58741;52.672;13.548;2022-09-03T10:50:52;23.10;44.50
71084;DHT22;58741;52.672;13.548;2022-09-03T10:56:14;23.10;44.40
71084;DHT22;58741;52.672;13.548;2022-09-03T11:01:46;23.10;43.00
71084;DHT22;58741;52.672;13.548;2022-09-03T11:07:56;23.20;44.80
71084;DHT22;58741;52.672;13.548;2022-09-03T11:10:28;23.40;42.30
71084;DHT22;58741;52.672;13.548;2022-09-03T11:18:40;23.50;43.20
71084;DHT22;58741;52.672;13.548;2022-09-03T11:21:11;23.70;42.00
71084;DHT22;58741;52.672;13.548;2022-09-03T11:23:41;23.70;43.20
71084;DHT22;58741;52.672;13.548;2022-09-03T11:26:10;23.70;42.80
71084;DHT22;58741;52.672;13.548;2022-09-03T11:34:31;23.30;43.70
71084;DHT22;58741;52.672;13.548;2022-09-03T11:37:25;23.20;43.90
71084;DHT22;58741;52.672;13.548;2022-09-03T11:39:57;23.20;43.20
71084;DHT22;58741;52.672;13.548;2022-09-03T11:42:30;23.10;43.20
71084;DHT22;58741;52.672;13.548;2022-09-03T11:45:21;23.20;42.60
71084;DHT22;58741;52.672;13.548;2022-09-03T11:47:49;23.20;44.70
71084;DHT22;58741;52.672;13.548;2022-09-03T11:52:47;23.20;43.00
71084;DHT22;58741;52.672;13.548;2022-09-03T11:55:31;23.20;44.10
71084;DHT22;58741;52.672;13.548;2022-09-03T11:58:11;23.10;44.30
71084;DHT22;58741;52.672;13.548;2022-09-03T12:00:39;23.10;44.00
71084;DHT22;58741;52.672;13.548;2022-09-03T12:03:13;23.10;44.40
71084;DHT22;58741;52.672;13.548;2022-09-03T12:17:32;23.30;43.20
71084;DHT22;58741;52.672;13.548;2022-09-03T12:20:00;23.20;42.20
71084;DHT22;58741;52.672;13.548;2022-09-03T12:22:28;23.10;43.50
71084;DHT22;58741;52.672;13.548;2022-09-03T12:24:54;23.10;43.50
71084;DHT22;58741;52.672;13.548;2022-09-03T12:27:22;23.00;43.10
71084;DHT22;58741;52.672;13.548;2022-09-03T12:29:55;22.90;43.20
71084;DHT22;58741;52.672;13.548;2022-09-03T12:32:24;22.80;43.00
71084;DHT22;58741;52.672;13.548;2022-09-03T12:34:50;22.70;43.70
71084;DHT22;58741;52.672;13.548;2022-09-03T12:37:20;22.60;43.30
71084;DHT22;58741;52.672;13.548;2022-09-03T12:39:52;22.70;44.10
71084;DHT22;58741;52.672;13.548;2022-09-03T12:42:24;22.60;44.00
71084;DHT22;58741;52.672;13.548;2022-09-03T12:44:50;22.70;42.20
71084;DHT22;58741;52.672;13.548;2022-09-03T12:47:18;22.70;44.30
71084;DHT22;58741;52.672;13.548;2022-09-03T12:49:46;22.60;43.50
71084;DHT22;58741;52.672;13.548;2022-09-03T12:52:28;22.60;44.50
71084;DHT22;58741;52.672;13.548;2022-09-03T12:55:02;22.60;43.70
71084;DHT22;58741;52.672;13.548;2022-09-03T12:57:44;22.50;43.80
71084;DHT22;58741;52.672;13.548;2022-09-03T13:00:14;22.50;43.20
71084;DHT22;58741;52.672;13.548;2022-09-03T13:02:57;22.50;44.10
71084;DHT22;58741;52.672;13.548;2022-09-03T13:05:42;22.50;43.60
71084;DHT22;58741;52.672;13.548;2022-09-03T13:08:12;22.40;45.00
71084;DHT22;58741;52.672;13.548;2022-09-03T13:10:40;22.40;44.50
71084;DHT22;58741;52.672;13.548;2022-09-03T13:13:32;22.40;43.50
71084;DHT22;58741;52.672;13.548;2022-09-03T13:16:18;22.40;44.00
71084;DHT22;58741;52.672;13.548;2022-09-03T13:19:03;22.50;44.00
71084;DHT22;58741;52.672;13.548;2022-09-03T13:24:49;22.70;44.40
71084;DHT22;58741;52.672;13.548;2022-09-03T13:27:34;22.70;44.80
71084;DHT22;58741;52.672;13.548;2022-09-03T13:30:02;22.80;43.90
71084;DHT22;58741;52.672;13.548;2022-09-03T13:32:46;22.80;43.20
71084;DHT22;58741;52.672;13.548;2022-09-03T13:38:35;22.60;43.80
71084;DHT22;58741;52.672;13.548;2022-09-03T13:41:36;22.50;42.30
71084;DHT22;58741;52.672;13.548;2022-09-03T13:44:16;22.50;43.60
71084;DHT22;58741;52.672;13.548;2022-09-03T13:46:55;22.40;43.70
71084;DHT22;58741;52.672;13.548;2022-09-03T13:49:40;22.40;43.10
71084;DHT22;58741;52.672;13.548;2022-09-03T13:52:37;22.40;44.00
71084;DHT22;58741;52.672;13.548;2022-09-03T13:55:22;22.40;43.60
71084;DHT22;58741;52.672;13.548;2022-09-03T13:57:53;22.40;43.50
71084;DHT22;58741;52.672;13.548;2022-09-03T14:00:42;22.30;42.50
71084;DHT22;58741;52.672;13.548;2022-09-03T14:03:42;22.30;42.30
71084;DHT22;58741;52.672;13.548;2022-09-03T14:06:36;22.30;43.30
71084;DHT22;58741;52.672;13.548;2022-09-03T14:09:25;22.30;43.60
71084;DHT22;58741;52.672;13.548;2022-09-03T14:14:54;22.20;44.40
71084;DHT22;58741;52.672;13.548;2022-09-03T14:20:20;22.30;43.30
71084;DHT22;58741;52.672;13.548;2022-09-03T14:22:56;22.30;43.20
71084;DHT22;58741;52.672;13.548;2022-09-03T14:25:26;22.30;43.20
71084;DHT22;58741;52.672;13.548;2022-09-03T14:27:52;22.30;42.00
71084;DHT22;58741;52.672;13.548;2022-09-03T14:30:33;22.20;43.20
71084;DHT22;58741;52.672;13.548;2022-09-03T14:39:08;22.40;43.90
71084;DHT22;58741;52.672;13.548;2022-09-03T14:44:26;22.50;42.60
71084;DHT22;58741;52.672;13.548;2022-09-03T14:47:30;22.60;43.40
71084;DHT22;58741;52.672;13.548;2022-09-03T14:55:56;22.70;42.20
71084;DHT22;58741;52.672;13.548;2022-09-03T14:58:48;22.60;42.20
71084;DHT22;58741;52.672;13.548;2022-09-03T15:01:32;22.50;42.70
71084;DHT22;58741;52.672;13.548;2022-09-03T15:09:37;22.50;41.40
71084;DHT22;58741;52.672;13.548;2022-09-03T15:12:16;22.60;42.10
71084;DHT22;58741;52.672;13.548;2022-09-03T15:14:54;22.70;42.10
71084;DHT22;58741;52.672;13.548;2022-09-03T15:17:47;22.80;42.00
71084;DHT22;58741;52.672;13.548;2022-09-03T15:20:25;22.90;41.70
71084;DHT22;58741;52.672;13.548;2022-09-03T15:23:22;22.90;40.40
71084;DHT22;58741;52.672;13.548;2022-09-03T15:26:09;22.80;41.70
71084;DHT22;58741;52.672;13.548;2022-09-03T15:28:55;22.70;42.00
71084;DHT22;58741;52.672;13.548;2022-09-03T15:31:43;22.70;42.30
71084;DHT22;58741;52.672;13.548;2022-09-03T15:34:36;22.70;43.00
71084;DHT22;58741;52.672;13.548;2022-09-03T15:37:18;22.80;42.80
71084;DHT22;58741;52.672;13.548;2022-09-03T15:39:45;23.00;42.60
71084;DHT22;58741;52.672;13.548;2022-09-03T15:42:25;23.10;43.00
71084;DHT22;58741;52.672;13.548;2022-09-03T15:45:04;23.20;42.70
71084;DHT22;58741;52.672;13.548;2022-09-03T15:50:23;23.40;41.10
71084;DHT22;58741;52.672;13.548;2022-09-03T15:55:39;23.40;41.30
71084;DHT22;58741;52.672;13.548;2022-09-03T15:58:51;23.40;40.60
71084;DHT22;58741;52.672;13.548;2022-09-03T16:00:52;23.50;40.80
71084;DHT22;58741;52.672;13.548;2022-09-03T16:03:35;23.50;40.80
71084;DHT22;58741;52.672;13.548;2022-09-03T16:06:36;23.60;40.60
71084;DHT22;58741;52.672;13.548;2022-09-03T16:09:33;23.70;41.20
71084;DHT22;58741;52.672;13.548;2022-09-03T16:12:07;23.70;40.50
71084;DHT22;58741;52.672;13.548;2022-09-03T16:14:43;23.70;40.60
71084;DHT22;58741;52.672;13.548;2022-09-03T16:20:06;23.80;40.40
71084;DHT22;58741;52.672;13.548;2022-09-03T16:22:42;23.70;39.50
71084;DHT22;58741;52.672;13.548;2022-09-03T16:25:15;23.70;39.20
71084;DHT22;58741;52.672;13.548;2022-09-03T16:27:56;23.60;40.40
71084;DHT22;58741;52.672;13.548;2022-09-03T16:33:34;23.40;39.00
71084;DHT22;58741;52.672;13.548;2022-09-03T16:36:24;23.20;40.40
71084;DHT22;58741;52.672;13.548;2022-09-03T16:39:15;23.10;40.80
71084;DHT22;58741;52.672;13.548;2022-09-03T16:42:17;22.90;40.40
71084;DHT22;58741;52.672;13.548;2022-09-03T16:45:06;22.70;40.50
71084;DHT22;58741;52.672;13.548;2022-09-03T16:53:07;22.30;41.60
71084;DHT22;58741;52.672;13.548;2022-09-03T17:10:13;21.70;42.20
71084;DHT22;58741;52.672;13.548;2022-09-03T17:18:25;21.30;43.10
71084;DHT22;58741;52.672;13.548;2022-09-03T17:21:03;21.30;43.00
71084;DHT22;58741;52.672;13.548;2022-09-03T17:23:55;21.20;43.40
71084;DHT22;58741;52.672;13.548;2022-09-03T17:26:42;21.10;43.80
71084;DHT22;58741;52.672;13.548;2022-09-03T17:32:36;21.00;44.70
71084;DHT22;58741;52.672;13.548;2022-09-03T17:35:30;20.90;45.00
71084;DHT22;58741;52.672;13.548;2022-09-03T17:40:55;20.70;45.80
71084;DHT22;58741;52.672;13.548;2022-09-03T17:43:46;20.60;45.80
71084;DHT22;58741;52.672;13.548;2022-09-03T17:48:59;20.40;45.60
71084;DHT22;58741;52.672;13.548;2022-09-03T17:52:21;20.30;45.40
71084;DHT22;58741;52.672;13.548;2022-09-03T17:54:40;20.30;45.70
71084;DHT22;58741;52.672;13.548;2022-09-03T17:57:36;20.20;45.80
71084;DHT22;58741;52.672;13.548;2022-09-03T18:00:06;20.10;45.90
71084;DHT22;58741;52.672;13.548;2022-09-03T18:02:49;20.00;46.00
71084;DHT22;58741;52.672;13.548;2022-09-03T18:05:17;20.00;46.10
71084;DHT22;58741;52.672;13.548;2022-09-03T18:10:57;19.80;46.50
71084;DHT22;58741;52.672;13.548;2022-09-03T18:13:47;19.70;46.70
71084;DHT22;58741;52.672;13.548;2022-09-03T18:18:56;19.60;46.90
71084;DHT22;58741;52.672;13.548;2022-09-03T18:21:25;19.50;47.70
71084;DHT22;58741;52.672;13.548;2022-09-03T18:24:32;19.40;46.90
71084;DHT22;58741;52.672;13.548;2022-09-03T18:30:03;19.30;47.40
71084;DHT22;58741;52.672;13.548;2022-09-03T18:32:48;19.30;47.80
71084;DHT22;58741;52.672;13.548;2022-09-03T18:35:32;19.20;48.20
71084;DHT22;58741;52.672;13.548;2022-09-03T18:38:24;19.10;48.40
71084;DHT22;58741;52.672;13.548;2022-09-03T18:41:50;19.00;48.80
71084;DHT22;58741;52.672;13.548;2022-09-03T18:48:17;18.80;49.20
71084;DHT22;58741;52.672;13.548;2022-09-03T18:50:47;18.80;49.20
71084;DHT22;58741;52.672;13.548;2022-09-03T18:57:00;18.60;49.40
71084;DHT22;58741;52.672;13.548;2022-09-03T19:00:13;18.60;49.50
71084;DHT22;58741;52.672;13.548;2022-09-03T19:09:39;18.40;49.70
71084;DHT22;58741;52.672;13.548;2022-09-03T19:15:33;18.30;50.00
71084;DHT22;58741;52.672;13.548;2022-09-03T19:21:26;18.20;50.10
71084;DHT22;58741;52.672;13.548;2022-09-03T19:24:12;18.20;50.10